Time;durP1;ratioP1;P1;durP2;ratioP2;P2;SDS_P1;SDS_P2;PMS_P1;PMS_P2;Temp;Humidity;BMP_temperature;BMP_pressure;BME280_temperature;BME280_humidity;BME280_pressure;Samples;Min_cycle;Max_cycle;Signal;HPM_P1;HPM_P2
2022/08/18 00:00:29;;;;;;;12.80;10.80;;;25.40;1.00;;;;;;5008661;28;20477;-79
2022/08/18 00:03:00;;;;;;;12.80;11.10;;;25.30;1.00;;;;;;5009941;28;20534;-80
2022/08/18 00:05:27;;;;;;;12.60;11.30;;;25.30;1.00;;;;;;5011120;28;20469;-79
2022/08/18 00:07:54;;;;;;;13.13;11.70;;;25.30;1.00;;;;;;5007558;28;20461;-79
2022/08/18 00:10:20;;;;;;;12.30;11.10;;;25.30;1.00;;;;;;5013229;28;20545;-80
2022/08/18 00:12:49;;;;;;;13.27;11.77;;;25.30;1.00;;;;;;5013781;28;21001;-79
2022/08/18 00:15:17;;;;;;;12.60;11.33;;;25.30;1.00;;;;;;5007834;28;20480;-80
2022/08/18 00:17:44;;;;;;;13.00;11.53;;;25.30;1.00;;;;;;5011538;28;20484;-79
2022/08/18 00:20:14;;;;;;;12.90;11.23;;;25.30;1.00;;;;;;5015766;28;20980;-78
2022/08/18 00:22:41;;;;;;;12.70;11.37;;;25.20;1.00;;;;;;5013460;28;20464;-81
2022/08/18 00:25:11;;;;;;;13.60;11.97;;;25.20;1.00;;;;;;5011309;28;20469;-79
2022/08/18 00:27:40;;;;;;;12.63;11.40;;;25.20;1.00;;;;;;5015639;28;20458;-79
2022/08/18 00:30:13;;;;;;;12.80;11.60;;;25.20;1.00;;;;;;5009954;28;20455;-79
2022/08/18 00:32:42;;;;;;;13.60;12.20;;;25.20;1.00;;;;;;5011871;28;20426;-80
2022/08/18 00:35:12;;;;;;;11.93;10.80;;;25.10;1.00;;;;;;5016405;28;20481;-79
2022/08/18 00:37:39;;;;;;;13.33;11.93;;;25.10;1.00;;;;;;5009263;28;20896;-80
2022/08/18 00:40:09;;;;;;;12.40;11.20;;;25.10;1.00;;;;;;5007308;28;20464;-79
2022/08/18 00:42:43;;;;;;;13.17;10.77;;;25.10;1.00;;;;;;5010927;28;20977;-79
2022/08/18 00:45:16;;;;;;;12.10;10.90;;;25.10;1.00;;;;;;5011453;28;21207;-79
2022/08/18 00:47:43;;;;;;;11.80;10.60;;;25.00;1.00;;;;;;5009490;28;22005;-79
2022/08/18 00:50:15;;;;;;;11.77;10.60;;;25.00;1.00;;;;;;5012428;28;20932;-79
2022/08/18 00:52:49;;;;;;;12.43;11.13;;;25.00;1.00;;;;;;5009889;28;20569;-79
2022/08/18 00:55:18;;;;;;;12.90;11.43;;;24.90;1.00;;;;;;5010998;28;20497;-79
2022/08/18 00:57:47;;;;;;;12.33;10.73;;;24.90;1.00;;;;;;5012018;28;20600;-80
2022/08/18 01:00:16;;;;;;;13.10;11.70;;;24.80;1.00;;;;;;5014677;28;20469;-79
2022/08/18 01:02:49;;;;;;;15.83;11.40;;;24.80;1.00;;;;;;5014400;28;21674;-79
2022/08/18 01:05:21;;;;;;;11.97;10.97;;;24.70;1.00;;;;;;5009996;28;20577;-80
2022/08/18 01:07:49;;;;;;;12.73;11.47;;;24.70;1.00;;;;;;5013536;28;20472;-79
2022/08/18 01:10:20;;;;;;;12.67;11.47;;;24.70;1.00;;;;;;5016040;28;20972;-79
2022/08/18 01:12:50;;;;;;;12.07;10.97;;;24.60;1.00;;;;;;5009001;28;20470;-79
2022/08/18 01:15:21;;;;;;;12.97;11.87;;;24.50;1.00;;;;;;5015705;28;20478;-79
2022/08/18 01:23:45;;;;;;;12.93;11.70;;;24.40;1.00;;;;;;4931380;28;20560;-79
2022/08/18 01:26:13;;;;;;;13.57;12.27;;;24.30;1.00;;;;;;4994231;28;20995;-79
2022/08/18 01:28:41;;;;;;;12.73;11.53;;;24.30;1.00;;;;;;5008354;28;20582;-79
2022/08/18 01:31:10;;;;;;;13.43;12.23;;;24.30;1.00;;;;;;5016502;28;20429;-79
2022/08/18 01:33:40;;;;;;;12.63;10.80;;;24.30;1.00;;;;;;5012503;28;20594;-79
2022/08/18 01:36:13;;;;;;;13.73;12.53;;;24.30;1.00;;;;;;5014131;28;20481;-78
2022/08/18 01:38:40;;;;;;;13.80;12.50;;;24.20;1.00;;;;;;5012780;28;20454;-79
2022/08/18 01:41:09;;;;;;;13.47;12.27;;;24.20;1.00;;;;;;5014504;28;20453;-79
2022/08/18 01:43:37;;;;;;;13.43;11.70;;;24.20;1.00;;;;;;5012899;28;21070;-76
2022/08/18 01:46:05;;;;;;;13.40;12.10;;;24.20;1.00;;;;;;5010059;28;20505;-78
2022/08/18 01:48:35;;;;;;;12.77;11.57;;;24.10;1.00;;;;;;5009904;28;20454;-77
2022/08/18 01:51:04;;;;;;;12.43;11.13;;;24.10;1.00;;;;;;5018045;28;20524;-77
2022/08/18 01:53:33;;;;;;;13.33;12.03;;;24.10;1.00;;;;;;5016050;28;20428;-77
2022/08/18 01:56:04;;;;;;;13.20;11.97;;;24.00;1.00;;;;;;5012349;28;20473;-77
2022/08/18 01:58:34;;;;;;;15.90;11.80;;;24.00;1.00;;;;;;5013008;28;20877;-78
2022/08/18 02:01:02;;;;;;;13.07;11.97;;;23.90;1.00;;;;;;5011036;28;20445;-78
2022/08/18 02:03:34;;;;;;;12.53;11.43;;;23.90;1.00;;;;;;5012998;28;20604;-79
2022/08/18 02:06:03;;;;;;;13.93;12.63;;;23.90;1.00;;;;;;5012841;28;20469;-77
2022/08/18 02:08:30;;;;;;;14.30;12.93;;;23.90;1.00;;;;;;5014317;28;20964;-78
2022/08/18 02:10:58;;;;;;;14.73;13.33;;;23.80;1.00;;;;;;5013186;28;20973;-77
2022/08/18 02:13:25;;;;;;;14.23;12.60;;;23.80;1.00;;;;;;5011684;28;20462;-78
2022/08/18 02:15:53;;;;;;;13.40;12.20;;;23.70;1.00;;;;;;5011009;28;20483;-79
2022/08/18 02:18:26;;;;;;;14.30;13.00;;;23.70;1.00;;;;;;5021734;28;20473;-80
2022/08/18 02:20:54;;;;;;;13.93;12.60;;;23.60;1.00;;;;;;5036980;28;20821;-78
2022/08/18 02:23:21;;;;;;;14.37;12.87;;;23.60;1.00;;;;;;5032963;28;21036;-78
2022/08/18 02:25:48;;;;;;;13.87;12.57;;;23.60;1.00;;;;;;5035582;28;20477;-78
2022/08/18 02:28:15;;;;;;;13.03;11.83;;;23.60;1.00;;;;;;5036639;28;20533;-79
2022/08/18 02:30:43;;;;;;;14.07;12.87;;;23.60;1.00;;;;;;5032038;28;20899;-77
2022/08/18 02:33:13;;;;;;;14.23;12.87;;;23.60;1.00;;;;;;5035431;28;20453;-78
2022/08/18 02:35:42;;;;;;;13.73;12.53;;;23.60;1.00;;;;;;5034861;28;21000;-78
2022/08/18 02:38:11;;;;;;;15.50;13.80;;;23.50;1.00;;;;;;5034897;28;21197;-78
2022/08/18 02:40:38;;;;;;;14.33;13.07;;;23.50;1.00;;;;;;5034292;28;20468;-79
2022/08/18 02:43:07;;;;;;;14.57;13.20;;;23.40;1.00;;;;;;5037064;28;20500;-78
2022/08/18 02:45:34;;;;;;;17.40;15.60;;;23.50;1.00;;;;;;5036831;28;20472;-78
2022/08/18 02:48:03;;;;;;;14.97;13.67;;;23.40;1.00;;;;;;5036771;28;20582;-78
2022/08/18 02:50:42;;;;;;;14.83;13.43;;;23.40;1.00;;;;;;5029698;28;21122;-79
2022/08/18 02:53:09;;;;;;;14.67;13.30;;;23.40;1.00;;;;;;5033733;28;20445;-79
2022/08/18 02:55:36;;;;;;;16.67;15.03;;;23.30;1.00;;;;;;5034219;28;20495;-78
2022/08/18 02:58:03;;;;;;;15.20;13.70;;;23.20;1.00;;;;;;5038589;28;20456;-77
2022/08/18 03:00:30;;;;;;;13.93;12.53;;;23.20;1.00;;;;;;5032753;28;20531;-81
2022/08/18 03:02:56;;;;;;;13.77;12.30;;;23.20;1.00;;;;;;5031859;28;20468;-78
2022/08/18 03:05:23;;;;;;;14.90;13.60;;;23.10;1.00;;;;;;5037787;28;20475;-79
2022/08/18 03:07:52;;;;;;;17.73;13.43;;;23.10;1.00;;;;;;5038133;28;20514;-78
2022/08/18 03:10:19;;;;;;;14.20;12.80;;;23.10;1.00;;;;;;5036609;28;21017;-77
2022/08/18 03:12:46;;;;;;;14.43;13.10;;;23.00;1.00;;;;;;5035563;28;20916;-78
2022/08/18 03:15:13;;;;;;;13.87;12.67;;;23.00;1.00;;;;;;5034659;28;20524;-77
2022/08/18 03:17:40;;;;;;;16.93;13.50;;;22.90;1.00;;;;;;5030627;28;20426;-77
2022/08/18 03:20:08;;;;;;;15.10;13.70;;;22.90;1.00;;;;;;5014129;28;20532;-78
2022/08/18 03:22:35;;;;;;;15.10;13.63;;;22.90;1.00;;;;;;5017885;28;20430;-79
2022/08/18 03:25:04;;;;;;;15.53;14.03;;;22.80;1.00;;;;;;5015977;28;20544;-78
2022/08/18 03:27:36;;;;;;;15.20;13.90;;;22.80;1.00;;;;;;5013958;28;20430;-78
2022/08/18 03:30:03;;;;;;;16.20;14.60;;;22.70;1.00;;;;;;5014365;28;20438;-79
2022/08/18 03:32:30;;;;;;;15.03;13.57;;;22.70;1.00;;;;;;5003208;28;20468;-77
2022/08/18 03:34:58;;;;;;;16.67;14.87;;;22.70;1.00;;;;;;5010997;28;20469;-78
2022/08/18 03:37:25;;;;;;;16.27;14.63;;;22.60;1.00;;;;;;5010842;28;20540;-79
2022/08/18 03:39:54;;;;;;;16.70;14.87;;;22.60;1.00;;;;;;5012327;28;20466;-78
2022/08/18 03:42:22;;;;;;;16.27;14.77;;;22.60;1.00;;;;;;5011609;28;20465;-78
2022/08/18 03:44:50;;;;;;;15.03;13.73;;;22.50;1.00;;;;;;5012813;28;20541;-79
2022/08/18 03:47:18;;;;;;;20.30;17.13;;;22.60;1.00;;;;;;5010805;28;20462;-80
2022/08/18 03:49:44;;;;;;;20.60;15.40;;;22.50;1.00;;;;;;5013825;28;20461;-79
2022/08/18 03:52:13;;;;;;;16.23;14.73;;;22.50;1.00;;;;;;5009434;28;20484;-79
2022/08/18 03:54:40;;;;;;;17.00;15.30;;;22.50;1.00;;;;;;5016309;28;20469;-79
2022/08/18 03:57:08;;;;;;;14.83;13.43;;;22.50;1.00;;;;;;5010923;28;20568;-79
2022/08/18 03:59:42;;;;;;;16.00;13.53;;;22.50;1.00;;;;;;5014927;28;20476;-79
2022/08/18 04:02:10;;;;;;;16.83;15.00;;;22.40;1.00;;;;;;5010196;28;20919;-79
2022/08/18 04:04:37;;;;;;;15.63;14.03;;;22.40;1.00;;;;;;5006710;28;20478;-78
2022/08/18 04:07:08;;;;;;;17.00;15.30;;;22.40;1.00;;;;;;5014219;28;20406;-78
2022/08/18 04:09:37;;;;;;;16.53;14.93;;;22.50;1.00;;;;;;5012067;28;20677;-78
2022/08/18 04:12:10;;;;;;;16.83;15.23;;;22.50;1.00;;;;;;5013310;28;20482;-80
2022/08/18 04:14:40;;;;;;;17.07;15.47;;;22.50;1.00;;;;;;5009553;28;20473;-79
2022/08/18 04:17:08;;;;;;;16.03;14.63;;;22.50;1.00;;;;;;5011495;28;20458;-78
2022/08/18 04:19:36;;;;;;;17.70;15.97;;;22.50;1.00;;;;;;5010693;28;20466;-78
2022/08/18 04:22:03;;;;;;;16.47;14.87;;;22.50;1.00;;;;;;5012973;28;20529;-79
2022/08/18 04:24:34;;;;;;;17.33;15.57;;;22.50;1.00;;;;;;5012086;28;20478;-78
2022/08/18 04:27:03;;;;;;;16.63;15.13;;;22.50;1.00;;;;;;5007449;28;21814;-79
2022/08/18 04:29:33;;;;;;;17.90;16.10;;;22.50;1.00;;;;;;5007831;28;20508;-79
2022/08/18 04:32:03;;;;;;;18.80;16.90;;;22.50;1.00;;;;;;4994784;28;20545;-78
2022/08/18 04:34:31;;;;;;;21.13;17.57;;;22.50;1.00;;;;;;5013508;28;20487;-78
2022/08/18 04:36:59;;;;;;;17.90;16.00;;;22.50;1.00;;;;;;5012964;28;20486;-79
2022/08/18 04:39:26;;;;;;;17.77;15.83;;;22.50;1.00;;;;;;5011216;28;20473;-78
2022/08/18 04:41:52;;;;;;;17.57;15.73;;;22.60;1.00;;;;;;5012811;28;20852;-78
2022/08/18 04:44:20;;;;;;;22.00;16.70;;;22.60;1.00;;;;;;5019347;28;20560;-78
2022/08/18 04:46:50;;;;;;;20.00;17.20;;;22.60;1.00;;;;;;5009677;28;20422;-78
2022/08/18 04:49:20;;;;;;;18.00;16.30;;;22.60;1.00;;;;;;5010989;28;20493;-80
2022/08/18 04:53:43;;;;;;;17.67;16.00;;;22.60;1.00;;;;;;5012869;28;20550;-77
2022/08/18 04:54:38;;;;;;;17.43;15.63;;;22.60;1.00;;;;;;5016142;28;20997;-79
2022/08/18 04:57:11;;;;;;;16.23;14.53;;;22.70;1.00;;;;;;5011364;28;20989;-79
2022/08/18 04:59:40;;;;;;;15.63;13.97;;;22.70;1.00;;;;;;5003401;28;20536;-79
2022/08/18 05:02:08;;;;;;;17.57;15.97;;;22.80;1.00;;;;;;4997322;28;20451;-78
2022/08/18 05:04:37;;;;;;;16.87;15.17;;;22.90;1.00;;;;;;5005817;28;20480;-79
2022/08/18 05:07:06;;;;;;;17.50;15.73;;;23.00;1.00;;;;;;5009799;28;20565;-77
2022/08/18 05:09:34;;;;;;;17.63;15.80;;;23.00;1.00;;;;;;5012162;28;20561;-78
2022/08/18 05:12:04;;;;;;;18.07;15.40;;;23.10;1.00;;;;;;5006994;28;20473;-78
2022/08/18 05:14:32;;;;;;;17.17;15.33;;;23.10;1.00;;;;;;5015854;28;20952;-78
2022/08/18 05:16:59;;;;;;;17.50;15.73;;;23.20;1.00;;;;;;5010360;28;20465;-77
2022/08/18 05:19:26;;;;;;;17.23;15.43;;;23.20;1.00;;;;;;5006954;28;20533;-78
2022/08/18 05:21:56;;;;;;;17.53;15.70;;;23.20;1.00;;;;;;5009794;28;20547;-77
2022/08/18 05:24:31;;;;;;;17.90;16.23;;;23.20;1.00;;;;;;5014415;28;20466;-76
2022/08/18 05:27:00;;;;;;;20.73;16.90;;;23.20;1.00;;;;;;5008948;28;20465;-77
2022/08/18 05:29:35;;;;;;;20.90;16.50;;;23.30;1.00;;;;;;5006454;28;20892;-81
2022/08/18 05:32:06;;;;;;;20.37;17.40;;;23.30;1.00;;;;;;5003169;28;21185;-80
2022/08/18 05:34:35;;;;;;;16.57;14.93;;;23.30;1.00;;;;;;5011511;28;20596;-79
2022/08/18 05:37:24;;;;;;;18.40;16.53;;;23.30;1.00;;;;;;5009922;28;20438;-80
2022/08/18 05:39:57;;;;;;;19.57;16.90;;;23.40;1.00;;;;;;5010146;28;20469;-79
2022/08/18 05:42:27;;;;;;;16.37;14.87;;;23.50;1.00;;;;;;5005806;28;20466;-78
2022/08/18 05:44:55;;;;;;;16.67;14.90;;;23.40;1.00;;;;;;5010457;28;20826;-77
2022/08/18 05:47:25;;;;;;;21.40;16.73;;;23.40;1.00;;;;;;5005450;28;20617;-74
2022/08/18 05:49:55;;;;;;;16.80;15.10;;;23.50;1.00;;;;;;5000206;28;20521;-74
2022/08/18 05:52:33;;;;;;;22.87;16.27;;;23.50;1.00;;;;;;5004107;28;22469;-73
2022/08/18 05:57:52;;;;;;;18.37;15.27;;;23.60;1.00;;;;;;5013396;28;20450;-72
2022/08/18 06:00:22;;;;;;;17.00;15.37;;;23.60;1.00;;;;;;5013970;28;20474;-72
2022/08/18 06:02:56;;;;;;;18.97;16.97;;;23.70;1.00;;;;;;5007956;28;21030;-72
2022/08/18 06:05:28;;;;;;;18.17;16.47;;;23.80;1.00;;;;;;5007193;28;20461;-72
2022/08/18 06:07:59;;;;;;;18.33;16.33;;;23.90;1.00;;;;;;5011804;28;20563;-73
2022/08/18 06:10:27;;;;;;;19.60;16.57;;;23.90;1.00;;;;;;5008178;28;20478;-71
2022/08/18 06:12:57;;;;;;;21.00;18.80;;;24.00;1.00;;;;;;5014464;28;20554;-73
2022/08/18 06:15:30;;;;;;;18.83;16.67;;;24.20;1.00;;;;;;5010096;28;20466;-76
2022/08/18 06:18:26;;;;;;;20.40;15.97;;;24.30;1.00;;;;;;5009658;28;20461;-75
2022/08/18 06:21:19;;;;;;;16.67;14.90;;;24.50;1.00;;;;;;5009261;28;20466;-71
2022/08/18 06:23:55;;;;;;;18.10;16.20;;;24.70;1.00;;;;;;5009516;28;20462;-73
2022/08/18 06:26:33;;;;;;;20.80;17.83;;;24.80;1.00;;;;;;5015180;28;20466;-74
2022/08/18 06:29:13;;;;;;;23.63;16.17;;;25.00;1.00;;;;;;5016571;28;20470;-71
2022/08/18 06:31:50;;;;;;;18.67;16.17;;;25.20;1.00;;;;;;5011851;28;20547;-70
2022/08/18 06:34:26;;;;;;;21.33;17.97;;;25.30;1.00;;;;;;5012704;28;20464;-76
2022/08/18 06:36:58;;;;;;;18.33;16.63;;;25.40;1.00;;;;;;5011658;28;20510;-74
2022/08/18 06:39:31;;;;;;;16.93;15.17;;;25.60;1.00;;;;;;5010937;28;20472;-78
2022/08/18 06:41:59;;;;;;;23.00;17.50;;;25.70;1.00;;;;;;5008409;28;20961;-72
2022/08/18 06:44:33;;;;;;;18.50;16.80;;;25.80;1.00;;;;;;5005716;28;20480;-71
2022/08/18 06:47:04;;;;;;;18.60;16.90;;;25.80;1.00;;;;;;5004955;28;20973;-71
2022/08/18 06:49:39;;;;;;;21.57;19.30;;;25.90;1.00;;;;;;5015662;28;20621;-72
2022/08/18 06:52:20;;;;;;;18.30;16.50;;;26.00;1.00;;;;;;5008976;28;20464;-72
2022/08/18 06:54:49;;;;;;;17.07;15.37;;;26.00;1.00;;;;;;5006642;28;20466;-72
2022/08/18 06:57:26;;;;;;;18.80;16.90;;;25.90;1.00;;;;;;5012277;28;20482;-71
2022/08/18 06:59:59;;;;;;;17.87;16.17;;;25.80;1.00;;;;;;5013461;28;20458;-72
2022/08/18 07:02:51;;;;;;;16.40;15.00;;;25.80;1.00;;;;;;5009678;28;20902;-71
2022/08/18 07:05:23;;;;;;;18.07;16.20;;;25.90;1.00;;;;;;5008502;28;20471;-72
2022/08/18 07:08:13;;;;;;;17.83;16.07;;;25.90;1.00;;;;;;5013075;28;20553;-71
2022/08/18 07:10:45;;;;;;;16.33;14.77;;;26.10;1.00;;;;;;5015655;28;20541;-74
2022/08/18 07:13:18;;;;;;;17.20;15.50;;;26.30;1.00;;;;;;5015254;28;20529;-74
2022/08/18 07:15:47;;;;;;;16.83;15.23;;;26.50;1.00;;;;;;5007718;28;20466;-78
2022/08/18 07:18:20;;;;;;;17.60;16.03;;;26.60;1.00;;;;;;4992241;28;21013;-78
2022/08/18 07:20:52;;;;;;;18.47;16.33;;;26.90;1.00;;;;;;5011198;28;20460;-78
2022/08/18 07:23:25;;;;;;;17.17;15.57;;;27.10;1.00;;;;;;5021476;28;20535;-79
2022/08/18 07:26:08;;;;;;;16.60;15.10;;;27.20;1.00;;;;;;5017551;28;20412;-78
2022/08/18 07:28:38;;;;;;;18.67;16.67;;;27.30;1.00;;;;;;5017918;28;20481;-78
2022/08/18 07:31:14;;;;;;;16.13;14.43;;;27.30;1.00;;;;;;5021085;28;20474;-78
2022/08/18 07:33:43;;;;;;;18.23;16.40;;;27.40;1.00;;;;;;5022847;28;20441;-78
2022/08/18 07:36:12;;;;;;;15.10;13.70;;;27.50;1.00;;;;;;5015799;28;20461;-78
2022/08/18 07:38:44;;;;;;;16.07;14.47;;;27.60;1.00;;;;;;5019440;28;20569;-78
2022/08/18 07:41:19;;;;;;;17.47;15.30;;;27.70;1.00;;;;;;5013158;28;20540;-81
2022/08/18 07:43:59;;;;;;;17.90;16.10;;;27.80;1.00;;;;;;5021308;28;21087;-77
2022/08/18 07:46:34;;;;;;;17.20;15.60;;;27.80;1.00;;;;;;5020414;28;20504;-78
2022/08/18 07:49:01;;;;;;;17.93;16.03;;;27.80;1.00;;;;;;5016892;28;20482;-81
2022/08/18 07:51:42;;;;;;;16.70;15.10;;;27.80;1.00;;;;;;5020054;28;20464;-78
2022/08/18 07:54:18;;;;;;;19.63;17.40;;;27.90;1.00;;;;;;5016338;28;20475;-78
2022/08/18 07:56:55;;;;;;;18.80;17.00;;;27.90;1.00;;;;;;5021694;28;20465;-79
2022/08/18 07:59:31;;;;;;;17.97;16.10;;;28.00;1.00;;;;;;5016717;28;20532;-80
2022/08/18 08:02:12;;;;;;;20.73;17.00;;;28.00;1.00;;;;;;5016172;28;21023;-79
2022/08/18 08:04:47;;;;;;;20.97;16.20;;;28.10;1.00;;;;;;5014739;28;20458;-78
2022/08/18 08:07:17;;;;;;;17.90;15.70;;;28.10;1.00;;;;;;5012090;28;20503;-80
2022/08/18 08:09:52;;;;;;;18.50;15.63;;;28.10;1.00;;;;;;5010800;28;20668;-80
2022/08/18 08:12:30;;;;;;;20.47;16.57;;;28.20;1.00;;;;;;5025909;28;20504;-77
2022/08/18 08:15:10;;;;;;;18.80;16.90;;;28.20;1.00;;;;;;5017344;28;20468;-78
2022/08/18 08:17:45;;;;;;;17.10;14.83;;;28.30;1.00;;;;;;5019339;28;20537;-77
2022/08/18 08:20:23;;;;;;;18.03;15.77;;;28.30;1.00;;;;;;5024338;28;20500;-78
2022/08/18 08:23:13;;;;;;;16.43;14.83;;;28.40;1.00;;;;;;5018943;28;20545;-80
2022/08/18 08:25:51;;;;;;;19.20;15.60;;;28.50;1.00;;;;;;5018606;28;20577;-78
2022/08/18 08:28:36;;;;;;;18.57;15.00;;;28.60;1.00;;;;;;5015655;28;20470;-78
2022/08/18 08:31:09;;;;;;;17.40;15.53;;;28.80;1.00;;;;;;5014691;28;20517;-77
2022/08/18 08:33:41;;;;;;;16.53;14.83;;;28.90;1.00;;;;;;5021842;28;20520;-79
2022/08/18 08:36:14;;;;;;;19.50;15.47;;;28.90;1.00;;;;;;5008975;28;20537;-79
2022/08/18 08:38:45;;;;;;;18.50;16.70;;;29.10;1.00;;;;;;5009569;28;20559;-79
2022/08/18 08:41:19;;;;;;;20.43;17.60;;;29.10;1.00;;;;;;5007370;28;20461;-79
2022/08/18 08:43:53;;;;;;;19.77;16.50;;;29.20;1.00;;;;;;5015584;28;20457;-79
2022/08/18 08:46:22;;;;;;;22.70;16.70;;;29.20;1.00;;;;;;5018085;28;20463;-79
2022/08/18 08:48:57;;;;;;;18.43;15.73;;;29.30;1.00;;;;;;5015604;28;20462;-80
2022/08/18 08:51:33;;;;;;;23.50;15.60;;;29.30;1.00;;;;;;5022332;28;21058;-79
2022/08/18 08:54:08;;;;;;;17.53;16.00;;;29.50;1.00;;;;;;5004014;28;20469;-80
2022/08/18 08:56:44;;;;;;;19.67;15.70;;;29.60;1.00;;;;;;5008096;28;21008;-79
2022/08/18 08:59:15;;;;;;;16.67;14.80;;;29.80;1.00;;;;;;5017355;28;20489;-80
2022/08/18 09:01:50;;;;;;;17.80;15.90;;;29.90;1.00;;;;;;5014305;28;20565;-82
2022/08/18 09:04:27;;;;;;;18.80;17.03;;;30.00;1.00;;;;;;5021260;28;20492;-80
2022/08/18 09:07:06;;;;;;;16.80;14.67;;;30.10;1.00;;;;;;4997660;28;20440;-79
2022/08/18 09:09:52;;;;;;;18.97;16.97;;;30.30;1.00;;;;;;5018073;28;20457;-79
2022/08/18 09:12:43;;;;;;;17.80;15.20;;;30.50;1.00;;;;;;5020488;28;20467;-78
2022/08/18 09:15:35;;;;;;;21.23;16.43;;;30.60;1.00;;;;;;5017016;28;20480;-79
2022/08/18 09:18:33;;;;;;;18.17;16.30;;;30.80;1.00;;;;;;5019927;28;21453;-79
2022/08/18 09:21:17;;;;;;;17.53;15.70;;;30.90;1.00;;;;;;5018126;28;20554;-78
2022/08/18 09:23:47;;;;;;;18.20;16.10;;;31.10;1.00;;;;;;5002133;28;21006;-77
2022/08/18 09:26:38;;;;;;;16.77;14.50;;;31.20;1.00;;;;;;5013863;28;20456;-79
2022/08/18 09:29:17;;;;;;;15.73;14.13;;;31.40;1.00;;;;;;5023026;28;20457;-86
2022/08/18 09:31:46;;;;;;;18.20;15.70;;;31.70;1.00;;;;;;5010099;28;21017;-85
2022/08/18 09:34:45;;;;;;;15.90;14.20;;;31.80;1.00;;;;;;5026497;28;20498;-86
2022/08/18 09:37:18;;;;;;;16.77;15.17;;;32.10;1.00;;;;;;5012072;28;21158;-85
2022/08/18 09:42:46;;;;;;;15.43;13.80;;;33.40;1.00;;;;;;5023775;28;20454;-88
2022/08/18 09:45:41;;;;;;;15.27;13.80;;;34.90;1.00;;;;;;5016700;28;20487;-85
2022/08/18 09:48:31;;;;;;;20.47;15.27;;;36.00;1.00;;;;;;5020338;28;20544;-87
2022/08/18 09:51:30;;;;;;;20.53;18.47;;;36.20;1.00;;;;;;5023427;28;20909;-86
2022/08/18 09:54:19;;;;;;;15.57;13.97;;;36.30;1.00;;;;;;5019992;28;20601;-87
2022/08/18 09:57:21;;;;;;;15.83;12.87;;;36.20;1.00;;;;;;5017112;28;20466;-88
2022/08/18 10:00:22;;;;;;;15.17;13.03;;;36.40;1.00;;;;;;5025471;28;20493;-88
2022/08/18 10:03:17;;;;;;;14.80;10.50;;;36.70;1.00;;;;;;5014713;28;20480;-87
2022/08/18 10:06:12;;;;;;;11.17;10.03;;;37.00;1.00;;;;;;5010924;28;20413;-87
2022/08/18 10:09:09;;;;;;;13.00;10.93;;;37.40;1.00;;;;;;5024622;28;20513;-87
2022/08/18 10:11:47;;;;;;;16.20;10.80;;;38.10;1.00;;;;;;5016875;28;20458;-87
2022/08/18 10:14:38;;;;;;;12.10;10.90;;;38.50;1.00;;;;;;5026029;28;20542;-86
2022/08/18 10:17:15;;;;;;;12.57;10.70;;;39.10;1.00;;;;;;5013284;28;20949;-88
2022/08/18 10:19:54;;;;;;;12.63;11.33;;;39.80;1.00;;;;;;5019906;28;20462;-85
2022/08/18 10:22:38;;;;;;;13.70;11.30;;;40.40;1.00;;;;;;5019002;28;20418;-85
2022/08/18 10:25:08;;;;;;;13.90;12.27;;;40.70;1.00;;;;;;5021134;28;20453;-86
2022/08/18 10:27:48;;;;;;;14.90;11.90;;;40.60;1.00;;;;;;5019557;28;20462;-85
2022/08/18 10:30:55;;;;;;;13.37;11.90;;;40.50;1.00;;;;;;5019550;28;20472;-86
2022/08/18 10:33:57;;;;;;;18.73;11.03;;;40.20;1.00;;;;;;5024170;28;20476;-85
2022/08/18 10:36:45;;;;;;;11.90;10.70;;;40.60;1.00;;;;;;5017931;28;20448;-84
2022/08/18 10:39:19;;;;;;;12.27;10.37;;;41.80;1.00;;;;;;5020049;28;20462;-86
2022/08/18 10:42:00;;;;;;;11.27;10.17;;;42.80;1.00;;;;;;5021445;28;20463;-87
2022/08/18 10:44:28;;;;;;;11.10;10.00;;;44.00;1.00;;;;;;5024602;28;20459;-86
2022/08/18 10:46:57;;;;;;;12.70;10.50;;;44.70;1.00;;;;;;5031213;28;20477;-86
2022/08/18 10:49:30;;;;;;;13.47;12.10;;;45.20;1.00;;;;;;5026950;28;20532;-87
2022/08/18 10:52:27;;;;;;;10.53;9.43;;;45.60;1.00;;;;;;5029503;28;20478;-87
2022/08/18 10:55:16;;;;;;;14.83;11.17;;;45.80;1.00;;;;;;5028693;28;20507;-87
2022/08/18 10:58:08;;;;;;;15.23;10.30;;;46.10;1.00;;;;;;5023408;28;20548;-87
2022/08/18 11:00:51;;;;;;;12.10;10.07;;;46.30;1.00;;;;;;5018084;28;20519;-87
2022/08/18 11:03:32;;;;;;;10.13;8.47;;;46.80;1.00;;;;;;5024429;28;20538;-87
2022/08/18 11:06:06;;;;;;;11.97;10.43;;;47.10;1.00;;;;;;5029538;28;20433;-90
2022/08/18 11:08:38;;;;;;;12.67;10.70;;;46.80;1.00;;;;;;5027535;28;20457;-89
2022/08/18 11:11:10;;;;;;;12.40;11.07;;;46.60;1.00;;;;;;5025880;28;20452;-87
2022/08/18 11:13:51;;;;;;;12.07;10.87;;;46.30;1.00;;;;;;5023569;28;20500;-88
2022/08/18 11:16:31;;;;;;;23.43;14.80;;;46.50;1.00;;;;;;5023385;28;20457;-88
2022/08/18 11:19:07;;;;;;;11.03;9.90;;;46.60;1.00;;;;;;5025692;28;20462;-86
2022/08/18 11:21:40;;;;;;;13.93;9.87;;;47.10;1.00;;;;;;5026760;28;20461;-85
2022/08/18 11:24:32;;;;;;;14.03;12.63;;;47.60;1.00;;;;;;5026921;28;20539;-87
2022/08/18 11:27:06;;;;;;;11.70;10.33;;;48.10;1.00;;;;;;5022063;28;20449;-86
2022/08/18 11:29:35;;;;;;;12.17;10.90;;;48.50;1.00;;;;;;5022166;28;20868;-85
2022/08/18 11:32:08;;;;;;;12.07;8.53;;;49.10;1.00;;;;;;5023654;28;20454;-86
2022/08/18 11:34:39;;;;;;;11.37;9.87;;;49.20;1.00;;;;;;5029690;28;20465;-87
2022/08/18 11:37:12;;;;;;;12.27;10.97;;;49.40;1.00;;;;;;5021386;28;20540;-89
2022/08/18 11:39:50;;;;;;;12.43;9.73;;;49.30;1.00;;;;;;5021251;28;20510;-87
2022/08/18 11:42:26;;;;;;;14.83;9.80;;;49.20;1.00;;;;;;5022268;28;20480;-88
2022/08/18 11:44:55;;;;;;;12.07;9.40;;;49.60;1.00;;;;;;5020126;28;20445;-87
2022/08/18 11:47:28;;;;;;;16.27;10.73;;;50.00;1.00;;;;;;5022687;28;20496;-86
2022/08/18 11:49:58;;;;;;;12.67;10.27;;;49.60;1.00;;;;;;5024548;28;20917;-87
2022/08/18 11:52:27;;;;;;;15.10;9.73;;;48.20;1.00;;;;;;5019157;28;20561;-87
2022/08/18 11:55:01;;;;;;;10.77;9.63;;;46.80;1.00;;;;;;5024181;28;20481;-86
2022/08/18 11:57:39;;;;;;;12.83;10.00;;;45.20;1.00;;;;;;5019479;28;20461;-86
2022/08/18 12:00:38;;;;;;;11.70;7.97;;;43.90;1.00;;;;;;5018948;28;20544;-87
2022/08/18 12:03:14;;;;;;;11.80;10.60;;;43.40;1.00;;;;;;5020873;28;20469;-87
2022/08/18 12:05:48;;;;;;;11.47;8.70;;;42.80;1.00;;;;;;5017907;28;20470;-86
2022/08/18 12:08:29;;;;;;;10.73;8.77;;;43.00;1.00;;;;;;5017532;28;20429;-85
2022/08/18 12:11:19;;;;;;;10.67;8.20;;;43.20;1.00;;;;;;5018365;28;20485;-87
2022/08/18 12:13:57;;;;;;;12.93;9.70;;;43.30;1.00;;;;;;5030768;28;21231;-91
2022/08/18 12:16:36;;;;;;;16.30;10.00;;;43.80;1.00;;;;;;5028880;28;20460;-91
2022/08/18 12:19:05;;;;;;;11.17;9.97;;;44.40;1.00;;;;;;5033749;28;20981;-89
2022/08/18 12:21:32;;;;;;;11.03;8.80;;;44.40;1.00;;;;;;5022014;28;20434;-90
2022/08/18 12:23:59;;;;;;;9.53;8.50;;;44.10;1.00;;;;;;5027763;28;20422;-86
2022/08/18 12:26:26;;;;;;;10.00;8.47;;;43.80;1.00;;;;;;5031029;28;20481;-93
2022/08/18 12:28:56;;;;;;;11.30;7.67;;;44.00;1.00;;;;;;5022887;28;20462;-90
2022/08/18 12:31:28;;;;;;;10.73;8.43;;;44.80;1.00;;;;;;5011765;28;20494;-92
2022/08/18 12:33:57;;;;;;;13.47;9.13;;;45.90;1.00;;;;;;5027624;28;20458;-88
2022/08/18 12:36:30;;;;;;;11.20;8.60;;;47.00;1.00;;;;;;5024292;28;20449;-87
2022/08/18 12:38:57;;;;;;;9.43;7.67;;;47.90;1.00;;;;;;5013001;28;20442;-93
2022/08/18 12:41:38;;;;;;;10.67;7.60;;;48.50;1.00;;;;;;5024995;28;20478;-93
2022/08/18 12:44:09;;;;;;;9.23;7.70;;;48.30;1.00;;;;;;5027131;28;20541;-91
2022/08/18 12:46:38;;;;;;;11.87;8.67;;;48.70;1.00;;;;;;5029950;28;20524;-93
2022/08/18 12:49:16;;;;;;;7.93;6.70;;;49.00;1.00;;;;;;5029103;28;20483;-92
2022/08/18 12:51:56;;;;;;;10.23;6.40;;;48.70;1.00;;;;;;5027444;28;20439;-92
2022/08/18 12:54:38;;;;;;;10.07;8.17;;;48.20;1.00;;;;;;5026527;28;20489;-92
2022/08/18 12:57:17;;;;;;;10.57;8.50;;;47.20;1.00;;;;;;5015886;28;20470;-91
2022/08/18 12:59:48;;;;;;;11.83;7.37;;;46.60;1.00;;;;;;5021033;28;20485;-88
2022/08/18 13:02:15;;;;;;;11.00;7.70;;;46.60;1.00;;;;;;5025844;28;20520;-90
2022/08/18 13:04:45;;;;;;;9.20;6.67;;;46.00;1.00;;;;;;5020950;28;20521;-88
2022/08/18 13:07:14;;;;;;;9.77;6.30;;;45.60;1.00;;;;;;5021629;28;21244;-89
2022/08/18 13:09:42;;;;;;;14.97;7.60;;;46.10;1.00;;;;;;5019166;28;20440;-89
2022/08/18 13:12:10;;;;;;;9.70;7.40;;;45.70;1.00;;;;;;5015135;28;20457;-90
2022/08/18 13:14:38;;;;;;;13.30;7.70;;;44.30;1.00;;;;;;5021381;28;20466;-88
2022/08/18 13:17:09;;;;;;;8.47;6.83;;;43.00;1.00;;;;;;5022171;28;20457;-88
2022/08/18 13:19:37;;;;;;;12.10;7.73;;;42.10;1.00;;;;;;5010592;28;20450;-90
2022/08/18 13:22:06;;;;;;;10.27;7.93;;;41.80;1.00;;;;;;5018871;28;20466;-88